CYRL

Red Lake Airport

Red Lake, Ontario, Canada
TAF AMD CYRL 162219Z 1622/1702 34008KT P6SM BKN025 TEMPO 1622/1702 BKN015 RMK NXT FCST WILL BE ISSUED AT 171045Z
Issued Valid From Valid To
Jul-16 @ 22:19 UTC
(2 hours ago)
Jul-16 @ 22:00 UTC
(2 hours ago)
Jul-17 @ 02:00 UTC
(in 2 hours)
Jul-16 @ 22:00 to Jul-17 @ 02:00
TAF AMD CYRL 162219Z 1622/1702 34008KT P6SM BKN025
Wind Visibility Clouds
340° at 8 knots Greater than 6 miles
  • Broken at 2,500' AGL
Temporary Jul-16 @ 22:00 to Jul-17 @ 02:00
TEMPO 1622/1702 BKN015 RMK NXT FCST WILL BE ISSUED AT 171045Z
Clouds
  • Broken at 1,500' AGL
TAF AMD CYRL 162219Z 1622/1702 34008KT P6SM BKN025 TEMPO 1622/1702 BKN015 RMK NXT FCST WILL BE ISSUED AT 171045Z
Issued Jul-16 @ 22:19 UTC
(2 hours ago)
Valid From Jul-16 @ 22:00 UTC
(2 hours ago)
Valid To Jul-17 @ 02:00 UTC
(in 2 hours)
Jul-16 @ 22:00 - Jul-17 @ 02:00
Wind Visibility
340° at 8 knots Greater than 6 miles
Clouds
  • Broken at 2,500' AGL
Temporary Jul-16 @ 22:00 - Jul-17 @ 02:00
Clouds
  • Broken at 1,500' AGL